sensor_id;sensor_type;location;lat;lon;timestamp;pressure;altitude;pressure_sealevel;temperature;humidity
56658;BME280;42530;52.240;19.354;2022-10-31T00:03:43;53140.25;;;-144.69;52.60
56658;BME280;42530;52.240;19.354;2022-10-31T00:06:08;53134.00;;;-144.69;52.28
56658;BME280;42530;52.240;19.354;2022-10-31T00:08:34;53131.94;;;-144.69;52.12
56658;BME280;42530;52.240;19.354;2022-10-31T00:11:00;53146.50;;;-144.69;52.43
56658;BME280;42530;52.240;19.354;2022-10-31T00:13:26;53098.66;;;-144.69;52.32
56658;BME280;42530;52.240;19.354;2022-10-31T00:15:52;53158.97;;;-144.69;52.35
56658;BME280;42530;52.240;19.354;2022-10-31T00:18:17;53092.41;;;-144.69;52.35
56658;BME280;42530;52.240;19.354;2022-10-31T00:20:43;53119.44;;;-144.69;52.63
56658;BME280;42530;52.240;19.354;2022-10-31T00:23:09;53131.94;;;-144.69;52.33
56658;BME280;42530;52.240;19.354;2022-10-31T00:25:37;53138.19;;;-144.69;51.57
56658;BME280;42530;52.240;19.354;2022-10-31T00:28:05;53144.41;;;-144.69;51.36
56658;BME280;42530;52.240;19.354;2022-10-31T00:30:31;53140.25;;;-144.69;51.94
56658;BME280;42530;52.240;19.354;2022-10-31T00:32:57;53136.09;;;-144.69;52.40
56658;BME280;42530;52.240;19.354;2022-10-31T00:35:22;53136.09;;;-144.69;52.38
56658;BME280;42530;52.240;19.354;2022-10-31T00:37:47;53092.41;;;-144.69;52.36
56658;BME280;42530;52.240;19.354;2022-10-31T00:40:13;53144.41;;;-144.69;52.22
56658;BME280;42530;52.240;19.354;2022-10-31T00:42:40;53127.78;;;-144.69;52.02
56658;BME280;42530;52.240;19.354;2022-10-31T00:45:08;53152.75;;;-144.69;52.01
56658;BME280;42530;52.240;19.354;2022-10-31T00:47:34;53148.56;;;-144.69;52.61
56658;BME280;42530;52.240;19.354;2022-10-31T00:50:00;53169.38;;;-144.69;52.47
56658;BME280;42530;52.240;19.354;2022-10-31T00:52:25;53148.56;;;-144.69;52.41
56658;BME280;42530;52.240;19.354;2022-10-31T00:54:51;53123.63;;;-144.69;52.10
56658;BME280;42530;52.240;19.354;2022-10-31T00:57:17;53121.53;;;-144.69;52.51
56658;BME280;42530;52.240;19.354;2022-10-31T01:03:03;53144.41;;;-144.69;52.00
56658;BME280;42530;52.240;19.354;2022-10-31T01:05:29;53119.44;;;-144.69;51.59
56658;BME280;42530;52.240;19.354;2022-10-31T01:07:55;53158.97;;;-144.69;51.61
56658;BME280;42530;52.240;19.354;2022-10-31T01:10:20;53148.56;;;-144.69;51.50
56658;BME280;42530;52.240;19.354;2022-10-31T01:12:48;53140.25;;;-144.69;50.75
56658;BME280;42530;52.240;19.354;2022-10-31T01:15:22;53113.22;;;-144.69;50.99
56658;BME280;42530;52.240;19.354;2022-10-31T01:17:48;53148.56;;;-144.69;51.16
56658;BME280;42530;52.240;19.354;2022-10-31T01:20:15;53102.81;;;-144.69;51.45
56658;BME280;42530;52.240;19.354;2022-10-31T01:22:41;53131.94;;;-144.69;51.31
56658;BME280;42530;52.240;19.354;2022-10-31T01:25:08;53127.78;;;-144.69;51.23
56658;BME280;42530;52.240;19.354;2022-10-31T01:27:34;53119.44;;;-144.69;51.10
56658;BME280;42530;52.240;19.354;2022-10-31T01:30:00;53119.44;;;-144.69;51.36
56658;BME280;42530;52.240;19.354;2022-10-31T01:32:26;53125.69;;;-144.69;51.54
56658;BME280;42530;52.240;19.354;2022-10-31T01:34:54;53148.56;;;-144.69;51.91
56658;BME280;42530;52.240;19.354;2022-10-31T01:37:20;53148.56;;;-144.69;52.27
56658;BME280;42530;52.240;19.354;2022-10-31T01:39:48;53129.84;;;-144.69;52.35
56658;BME280;42530;52.240;19.354;2022-10-31T01:42:19;53156.91;;;-144.69;52.27
56658;BME280;42530;52.240;19.354;2022-10-31T01:44:51;53131.94;;;-144.69;52.13
56658;BME280;42530;52.240;19.354;2022-10-31T01:47:22;53129.84;;;-144.69;52.11
56658;BME280;42530;52.240;19.354;2022-10-31T01:50:01;53115.28;;;-144.69;51.87
56658;BME280;42530;52.240;19.354;2022-10-31T01:52:32;53161.06;;;-144.69;51.97
56658;BME280;42530;52.240;19.354;2022-10-31T01:55:05;53140.25;;;-144.69;51.93
56658;BME280;42530;52.240;19.354;2022-10-31T01:57:35;53109.06;;;-144.69;51.92
56658;BME280;42530;52.240;19.354;2022-10-31T02:00:07;53094.47;;;-144.69;51.52
56658;BME280;42530;52.240;19.354;2022-10-31T02:02:33;53152.75;;;-144.69;51.77
56658;BME280;42530;52.240;19.354;2022-10-31T02:05:02;53154.81;;;-144.69;51.70
56658;BME280;42530;52.240;19.354;2022-10-31T02:08:00;53138.19;;;-144.69;51.77
56658;BME280;42530;52.240;19.354;2022-10-31T02:10:29;53123.63;;;-144.69;51.21
56658;BME280;42530;52.240;19.354;2022-10-31T02:12:57;53169.38;;;-144.69;51.21
56658;BME280;42530;52.240;19.354;2022-10-31T02:15:23;53119.44;;;-144.69;51.59
56658;BME280;42530;52.240;19.354;2022-10-31T02:17:49;53169.38;;;-144.69;51.47
56658;BME280;42530;52.240;19.354;2022-10-31T02:20:19;53156.91;;;-144.69;51.43
56658;BME280;42530;52.240;19.354;2022-10-31T02:28:29;53136.09;;;-144.69;51.39
56658;BME280;42530;52.240;19.354;2022-10-31T02:31:01;53161.06;;;-144.69;51.59
56658;BME280;42530;52.240;19.354;2022-10-31T02:33:43;53144.41;;;-144.69;51.65
56658;BME280;42530;52.240;19.354;2022-10-31T02:36:16;53117.38;;;-144.69;51.98
56658;BME280;42530;52.240;19.354;2022-10-31T02:39:16;53113.22;;;-144.69;51.18
56658;BME280;42530;52.240;19.354;2022-10-31T02:43:00;53140.25;;;-144.69;51.72
56658;BME280;42530;52.240;19.354;2022-10-31T02:48:24;53088.25;;;-144.69;51.67
56658;BME280;42530;52.240;19.354;2022-10-31T02:51:00;53115.28;;;-144.69;51.38
56658;BME280;42530;52.240;19.354;2022-10-31T02:53:26;53104.88;;;-144.69;51.22
56658;BME280;42530;52.240;19.354;2022-10-31T02:56:00;53136.09;;;-144.69;51.79
56658;BME280;42530;52.240;19.354;2022-10-31T02:58:31;53161.06;;;-144.69;51.38
56658;BME280;42530;52.240;19.354;2022-10-31T03:01:23;53140.25;;;-144.69;51.29
56658;BME280;42530;52.240;19.354;2022-10-31T03:06:45;53169.38;;;-144.69;51.97
56658;BME280;42530;52.240;19.354;2022-10-31T03:12:10;53119.44;;;-144.69;52.49
56658;BME280;42530;52.240;19.354;2022-10-31T03:14:51;53127.78;;;-144.69;52.38
56658;BME280;42530;52.240;19.354;2022-10-31T03:17:30;53119.44;;;-144.69;52.32
56658;BME280;42530;52.240;19.354;2022-10-31T03:20:00;53148.56;;;-144.69;52.34
56658;BME280;42530;52.240;19.354;2022-10-31T03:22:29;53131.94;;;-144.69;52.57
56658;BME280;42530;52.240;19.354;2022-10-31T03:24:57;53136.09;;;-144.69;52.43
56658;BME280;42530;52.240;19.354;2022-10-31T03:27:29;53131.94;;;-144.69;51.76
56658;BME280;42530;52.240;19.354;2022-10-31T03:30:00;53156.91;;;-144.69;52.16
56658;BME280;42530;52.240;19.354;2022-10-31T03:32:31;53127.78;;;-144.69;51.63
56658;BME280;42530;52.240;19.354;2022-10-31T03:34:59;53134.00;;;-144.69;51.84
56658;BME280;42530;52.240;19.354;2022-10-31T03:37:29;53109.06;;;-144.69;51.95
56658;BME280;42530;52.240;19.354;2022-10-31T03:39:55;53150.66;;;-144.69;51.68
56658;BME280;42530;52.240;19.354;2022-10-31T03:42:30;53129.84;;;-144.69;51.36
56658;BME280;42530;52.240;19.354;2022-10-31T03:45:01;53142.34;;;-144.69;51.45
56658;BME280;42530;52.240;19.354;2022-10-31T03:47:28;53152.75;;;-144.69;51.78
56658;BME280;42530;52.240;19.354;2022-10-31T03:49:54;53136.09;;;-144.69;51.91
56658;BME280;42530;52.240;19.354;2022-10-31T03:52:32;53161.06;;;-144.69;51.64
56658;BME280;42530;52.240;19.354;2022-10-31T03:55:19;53102.81;;;-144.69;51.48
56658;BME280;42530;52.240;19.354;2022-10-31T03:57:48;53142.34;;;-144.69;51.74
56658;BME280;42530;52.240;19.354;2022-10-31T04:00:16;53131.94;;;-144.69;51.72
56658;BME280;42530;52.240;19.354;2022-10-31T04:02:50;53131.94;;;-144.69;51.96
56658;BME280;42530;52.240;19.354;2022-10-31T04:05:18;53102.81;;;-144.69;52.12
56658;BME280;42530;52.240;19.354;2022-10-31T04:07:47;53136.09;;;-144.69;52.27
56658;BME280;42530;52.240;19.354;2022-10-31T04:10:15;53134.00;;;-144.69;52.19
56658;BME280;42530;52.240;19.354;2022-10-31T04:12:43;53127.78;;;-144.69;51.93
56658;BME280;42530;52.240;19.354;2022-10-31T04:15:12;53142.34;;;-144.69;52.16
56658;BME280;42530;52.240;19.354;2022-10-31T04:17:40;53129.84;;;-144.69;52.13
56658;BME280;42530;52.240;19.354;2022-10-31T04:20:07;53123.63;;;-144.69;51.68
56658;BME280;42530;52.240;19.354;2022-10-31T04:22:33;53115.28;;;-144.69;51.82
56658;BME280;42530;52.240;19.354;2022-10-31T04:24:58;53158.97;;;-144.69;52.30
56658;BME280;42530;52.240;19.354;2022-10-31T04:27:24;53171.47;;;-144.69;51.94
56658;BME280;42530;52.240;19.354;2022-10-31T04:29:49;53146.50;;;-144.69;51.48
56658;BME280;42530;52.240;19.354;2022-10-31T04:32:15;53144.41;;;-144.69;52.27
56658;BME280;42530;52.240;19.354;2022-10-31T04:34:41;53127.78;;;-144.69;51.21
56658;BME280;42530;52.240;19.354;2022-10-31T04:37:06;53136.09;;;-144.69;52.08
56658;BME280;42530;52.240;19.354;2022-10-31T04:39:32;53106.97;;;-144.69;51.68
56658;BME280;42530;52.240;19.354;2022-10-31T04:41:57;53115.28;;;-144.69;52.29
56658;BME280;42530;52.240;19.354;2022-10-31T04:44:23;53123.63;;;-144.69;52.13
56658;BME280;42530;52.240;19.354;2022-10-31T04:46:48;53136.09;;;-144.69;52.31
56658;BME280;42530;52.240;19.354;2022-10-31T04:49:14;53140.25;;;-144.69;51.81
56658;BME280;42530;52.240;19.354;2022-10-31T04:51:39;53148.56;;;-144.69;52.28
56658;BME280;42530;52.240;19.354;2022-10-31T04:54:05;53138.19;;;-144.69;51.86
56658;BME280;42530;52.240;19.354;2022-10-31T04:56:30;53127.78;;;-144.69;51.89
56658;BME280;42530;52.240;19.354;2022-10-31T04:58:56;53119.44;;;-144.69;52.59
56658;BME280;42530;52.240;19.354;2022-10-31T05:01:22;53119.44;;;-144.69;52.54
56658;BME280;42530;52.240;19.354;2022-10-31T05:03:47;53148.56;;;-144.69;52.51
56658;BME280;42530;52.240;19.354;2022-10-31T05:06:13;53127.78;;;-144.69;52.87
56658;BME280;42530;52.240;19.354;2022-10-31T05:08:38;53140.25;;;-144.69;52.58
56658;BME280;42530;52.240;19.354;2022-10-31T05:11:04;53127.78;;;-144.69;52.79
56658;BME280;42530;52.240;19.354;2022-10-31T05:13:30;53134.00;;;-144.69;52.43
56658;BME280;42530;52.240;19.354;2022-10-31T05:15:56;53134.00;;;-144.69;52.78
56658;BME280;42530;52.240;19.354;2022-10-31T05:18:22;53109.06;;;-144.69;52.58
56658;BME280;42530;52.240;19.354;2022-10-31T05:20:48;53140.25;;;-144.69;53.36
56658;BME280;42530;52.240;19.354;2022-10-31T05:23:13;53156.91;;;-144.69;53.19
56658;BME280;42530;52.240;19.354;2022-10-31T05:25:40;53140.25;;;-144.69;52.59
56658;BME280;42530;52.240;19.354;2022-10-31T05:28:06;53146.50;;;-144.69;52.60
56658;BME280;42530;52.240;19.354;2022-10-31T05:30:33;53125.69;;;-144.69;53.02
56658;BME280;42530;52.240;19.354;2022-10-31T05:32:59;53131.94;;;-144.69;53.23
56658;BME280;42530;52.240;19.354;2022-10-31T05:35:28;53152.75;;;-144.69;52.98
56658;BME280;42530;52.240;19.354;2022-10-31T05:37:53;53138.19;;;-144.69;53.48
56658;BME280;42530;52.240;19.354;2022-10-31T05:40:20;53158.97;;;-144.69;53.69
56658;BME280;42530;52.240;19.354;2022-10-31T05:42:46;53161.06;;;-144.69;53.48
56658;BME280;42530;52.240;19.354;2022-10-31T05:45:16;53140.25;;;-144.69;53.43
56658;BME280;42530;52.240;19.354;2022-10-31T05:47:49;53148.56;;;-144.69;53.10
56658;BME280;42530;52.240;19.354;2022-10-31T05:50:15;53140.25;;;-144.69;53.11
56658;BME280;42530;52.240;19.354;2022-10-31T05:52:40;53075.75;;;-144.69;53.34
56658;BME280;42530;52.240;19.354;2022-10-31T05:55:06;53127.78;;;-144.69;52.98
56658;BME280;42530;52.240;19.354;2022-10-31T05:57:32;53140.25;;;-144.69;53.68
56658;BME280;42530;52.240;19.354;2022-10-31T05:59:58;53167.31;;;-144.69;53.68
56658;BME280;42530;52.240;19.354;2022-10-31T06:02:23;53146.50;;;-144.69;53.54
56658;BME280;42530;52.240;19.354;2022-10-31T06:04:49;53109.06;;;-144.69;53.24
56658;BME280;42530;52.240;19.354;2022-10-31T06:07:14;53123.63;;;-144.69;53.05
56658;BME280;42530;52.240;19.354;2022-10-31T06:09:40;53171.47;;;-144.69;53.02
56658;BME280;42530;52.240;19.354;2022-10-31T06:12:05;53148.56;;;-144.69;52.97
56658;BME280;42530;52.240;19.354;2022-10-31T06:14:31;53152.75;;;-144.69;53.03
56658;BME280;42530;52.240;19.354;2022-10-31T06:16:56;53167.31;;;-144.69;52.83
56658;BME280;42530;52.240;19.354;2022-10-31T06:19:22;53158.97;;;-144.69;53.02
56658;BME280;42530;52.240;19.354;2022-10-31T06:21:47;53179.78;;;-144.69;53.61
56658;BME280;42530;52.240;19.354;2022-10-31T06:24:13;53144.41;;;-144.69;52.73
56658;BME280;42530;52.240;19.354;2022-10-31T06:26:40;53144.41;;;-144.69;53.21
56658;BME280;42530;52.240;19.354;2022-10-31T06:29:06;53140.25;;;-144.69;52.70
56658;BME280;42530;52.240;19.354;2022-10-31T06:31:32;53163.13;;;-144.69;53.32
56658;BME280;42530;52.240;19.354;2022-10-31T06:33:57;53169.38;;;-144.69;52.27
56658;BME280;42530;52.240;19.354;2022-10-31T06:36:23;53098.66;;;-144.69;52.60
56658;BME280;42530;52.240;19.354;2022-10-31T06:38:48;53173.53;;;-144.69;52.34
56658;BME280;42530;52.240;19.354;2022-10-31T06:41:14;53144.41;;;-144.69;52.66
56658;BME280;42530;52.240;19.354;2022-10-31T06:43:39;53136.09;;;-144.69;52.57
56658;BME280;42530;52.240;19.354;2022-10-31T06:46:05;53136.09;;;-144.69;53.11
56658;BME280;42530;52.240;19.354;2022-10-31T06:48:32;53169.38;;;-144.69;52.64
56658;BME280;42530;52.240;19.354;2022-10-31T06:51:00;53140.25;;;-144.69;52.69
56658;BME280;42530;52.240;19.354;2022-10-31T06:53:27;53134.00;;;-144.69;52.33
56658;BME280;42530;52.240;19.354;2022-10-31T06:55:55;53144.41;;;-144.69;52.27
56658;BME280;42530;52.240;19.354;2022-10-31T06:58:22;53115.28;;;-144.69;52.78
56658;BME280;42530;52.240;19.354;2022-10-31T07:00:47;53158.97;;;-144.69;52.43
56658;BME280;42530;52.240;19.354;2022-10-31T07:03:15;53156.91;;;-144.69;52.19
56658;BME280;42530;52.240;19.354;2022-10-31T07:05:43;53142.34;;;-144.69;52.87
56658;BME280;42530;52.240;19.354;2022-10-31T07:08:11;53127.78;;;-144.69;52.85
56658;BME280;42530;52.240;19.354;2022-10-31T07:10:39;53144.41;;;-144.69;52.74
56658;BME280;42530;52.240;19.354;2022-10-31T07:13:07;53134.00;;;-144.69;52.82
56658;BME280;42530;52.240;19.354;2022-10-31T07:15:36;53140.25;;;-144.69;52.33
56658;BME280;42530;52.240;19.354;2022-10-31T07:18:04;53111.13;;;-144.69;53.18
56658;BME280;42530;52.240;19.354;2022-10-31T07:20:30;53167.31;;;-144.69;53.17
56658;BME280;42530;52.240;19.354;2022-10-31T07:22:57;53171.47;;;-144.69;53.43
56658;BME280;42530;52.240;19.354;2022-10-31T07:25:22;53142.34;;;-144.69;53.70
56658;BME280;42530;52.240;19.354;2022-10-31T07:27:49;53171.47;;;-144.69;53.86
56658;BME280;42530;52.240;19.354;2022-10-31T07:30:15;53142.34;;;-144.69;53.30
56658;BME280;42530;52.240;19.354;2022-10-31T07:32:47;53129.84;;;-144.69;52.93
56658;BME280;42530;52.240;19.354;2022-10-31T07:35:17;53148.56;;;-144.69;53.96
56658;BME280;42530;52.240;19.354;2022-10-31T07:37:43;53152.75;;;-144.69;53.41
56658;BME280;42530;52.240;19.354;2022-10-31T07:40:09;53173.53;;;-144.69;52.91
56658;BME280;42530;52.240;19.354;2022-10-31T07:42:40;53190.19;;;-144.69;51.97
56658;BME280;42530;52.240;19.354;2022-10-31T07:45:09;53156.91;;;-144.69;52.00
56658;BME280;42530;52.240;19.354;2022-10-31T07:47:53;53165.22;;;-144.69;52.48
56658;BME280;42530;52.240;19.354;2022-10-31T07:50:24;53144.41;;;-144.69;52.47
56658;BME280;42530;52.240;19.354;2022-10-31T07:53:07;53148.56;;;-144.69;52.63
56658;BME280;42530;52.240;19.354;2022-10-31T07:55:34;53186.03;;;-144.69;52.27
56658;BME280;42530;52.240;19.354;2022-10-31T08:00:33;53127.78;;;-144.69;52.69
56658;BME280;42530;52.240;19.354;2022-10-31T08:03:01;53146.50;;;-144.69;51.75
56658;BME280;42530;52.240;19.354;2022-10-31T08:05:27;53148.56;;;-144.69;52.50
56658;BME280;42530;52.240;19.354;2022-10-31T08:07:53;53144.41;;;-144.69;52.64
56658;BME280;42530;52.240;19.354;2022-10-31T08:10:19;53165.22;;;-144.69;52.20
56658;BME280;42530;52.240;19.354;2022-10-31T08:12:45;53183.94;;;-144.69;52.54
56658;BME280;42530;52.240;19.354;2022-10-31T08:15:11;53146.50;;;-144.69;51.98
56658;BME280;42530;52.240;19.354;2022-10-31T08:17:37;53150.66;;;-144.69;51.93
56658;BME280;42530;52.240;19.354;2022-10-31T08:20:04;53131.94;;;-144.69;52.52
56658;BME280;42530;52.240;19.354;2022-10-31T08:22:30;53171.47;;;-144.69;51.21
56658;BME280;42530;52.240;19.354;2022-10-31T08:24:55;53150.66;;;-144.69;51.81
56658;BME280;42530;52.240;19.354;2022-10-31T08:27:21;53138.19;;;-144.69;52.21
56658;BME280;42530;52.240;19.354;2022-10-31T08:29:46;53127.78;;;-144.69;51.38
56658;BME280;42530;52.240;19.354;2022-10-31T08:32:12;53136.09;;;-144.69;51.38
56658;BME280;42530;52.240;19.354;2022-10-31T08:34:37;53154.81;;;-144.69;50.89
56658;BME280;42530;52.240;19.354;2022-10-31T08:37:03;53152.75;;;-144.69;50.69
56658;BME280;42530;52.240;19.354;2022-10-31T08:39:28;53177.72;;;-144.69;50.57
56658;BME280;42530;52.240;19.354;2022-10-31T08:41:54;53165.22;;;-144.69;50.39
56658;BME280;42530;52.240;19.354;2022-10-31T08:44:20;53163.13;;;-144.69;50.52
56658;BME280;42530;52.240;19.354;2022-10-31T08:46:45;53156.91;;;-144.69;51.01
56658;BME280;42530;52.240;19.354;2022-10-31T08:49:11;53161.06;;;-144.69;50.66
56658;BME280;42530;52.240;19.354;2022-10-31T08:51:37;53154.81;;;-144.69;51.27
56658;BME280;42530;52.240;19.354;2022-10-31T08:54:02;53165.22;;;-144.69;50.95
56658;BME280;42530;52.240;19.354;2022-10-31T08:56:28;53177.72;;;-144.69;51.27
56658;BME280;42530;52.240;19.354;2022-10-31T08:58:53;53161.06;;;-144.69;50.95
56658;BME280;42530;52.240;19.354;2022-10-31T09:01:19;53152.75;;;-144.69;50.78
56658;BME280;42530;52.240;19.354;2022-10-31T09:03:44;53167.31;;;-144.69;50.64
56658;BME280;42530;52.240;19.354;2022-10-31T09:06:10;53146.50;;;-144.69;50.23
56658;BME280;42530;52.240;19.354;2022-10-31T09:08:36;53121.53;;;-144.69;50.55
56658;BME280;42530;52.240;19.354;2022-10-31T09:11:01;53148.56;;;-144.69;51.56
56658;BME280;42530;52.240;19.354;2022-10-31T09:13:27;53161.06;;;-144.69;52.11
56658;BME280;42530;52.240;19.354;2022-10-31T09:15:52;53148.56;;;-144.69;51.40
56658;BME280;42530;52.240;19.354;2022-10-31T09:18:21;53150.66;;;-144.69;51.43
56658;BME280;42530;52.240;19.354;2022-10-31T09:20:48;53129.84;;;-144.69;51.15
56658;BME280;42530;52.240;19.354;2022-10-31T09:23:19;53175.63;;;-144.69;51.21
56658;BME280;42530;52.240;19.354;2022-10-31T09:25:46;53165.22;;;-144.69;51.32
56658;BME280;42530;52.240;19.354;2022-10-31T09:28:14;53169.38;;;-144.69;51.49
56658;BME280;42530;52.240;19.354;2022-10-31T09:30:39;53146.50;;;-144.69;51.43
56658;BME280;42530;52.240;19.354;2022-10-31T09:33:12;53154.81;;;-144.69;50.35
56658;BME280;42530;52.240;19.354;2022-10-31T09:35:39;53165.22;;;-144.69;50.40
56658;BME280;42530;52.240;19.354;2022-10-31T09:38:07;53154.81;;;-144.69;50.40
56658;BME280;42530;52.240;19.354;2022-10-31T09:40:55;53152.75;;;-144.69;50.59
56658;BME280;42530;52.240;19.354;2022-10-31T09:51:25;53154.81;;;-144.69;50.97
56658;BME280;42530;52.240;19.354;2022-10-31T09:54:05;53138.19;;;-144.69;51.02
56658;BME280;42530;52.240;19.354;2022-10-31T09:56:32;53140.25;;;-144.69;50.78
56658;BME280;42530;52.240;19.354;2022-10-31T09:58:59;53136.09;;;-144.69;50.86
56658;BME280;42530;52.240;19.354;2022-10-31T10:04:36;53169.38;;;-144.69;50.37
56658;BME280;42530;52.240;19.354;2022-10-31T10:07:13;53136.09;;;-144.69;50.80
56658;BME280;42530;52.240;19.354;2022-10-31T10:09:42;53152.75;;;-144.69;50.91
56658;BME280;42530;52.240;19.354;2022-10-31T10:12:19;53146.50;;;-144.69;51.06
56658;BME280;42530;52.240;19.354;2022-10-31T10:25:23;53165.22;;;-144.69;49.27
56658;BME280;42530;52.240;19.354;2022-10-31T10:30:33;53138.19;;;-144.69;49.06
56658;BME280;42530;52.240;19.354;2022-10-31T10:33:22;53140.25;;;-144.69;48.95
56658;BME280;42530;52.240;19.354;2022-10-31T10:35:55;53152.75;;;-144.69;50.09
56658;BME280;42530;52.240;19.354;2022-10-31T10:40:53;53134.00;;;-144.69;49.97
56658;BME280;42530;52.240;19.354;2022-10-31T10:54:59;53173.53;;;-144.69;49.48
56658;BME280;42530;52.240;19.354;2022-10-31T11:00:38;53148.56;;;-144.69;48.88
56658;BME280;42530;52.240;19.354;2022-10-31T11:03:04;53144.41;;;-144.69;49.43
56658;BME280;42530;52.240;19.354;2022-10-31T11:05:44;53136.09;;;-144.69;49.66
56658;BME280;42530;52.240;19.354;2022-10-31T11:08:23;53190.19;;;-144.69;50.14
56658;BME280;42530;52.240;19.354;2022-10-31T11:11:00;53175.63;;;-144.69;49.88
56658;BME280;42530;52.240;19.354;2022-10-31T11:13:27;53138.19;;;-144.69;49.91
56658;BME280;42530;52.240;19.354;2022-10-31T11:16:14;53140.25;;;-144.69;50.85
56658;BME280;42530;52.240;19.354;2022-10-31T11:18:44;53134.00;;;-144.69;51.07
56658;BME280;42530;52.240;19.354;2022-10-31T11:21:40;53136.09;;;-144.69;51.54
56658;BME280;42530;52.240;19.354;2022-10-31T11:26:35;53150.66;;;-144.69;51.93
56658;BME280;42530;52.240;19.354;2022-10-31T11:29:04;53148.56;;;-144.69;51.82
56658;BME280;42530;52.240;19.354;2022-10-31T11:31:34;53171.47;;;-144.69;51.71
56658;BME280;42530;52.240;19.354;2022-10-31T11:34:04;53131.94;;;-144.69;50.85
56658;BME280;42530;52.240;19.354;2022-10-31T11:36:37;53140.25;;;-144.69;50.47
56658;BME280;42530;52.240;19.354;2022-10-31T11:39:05;53169.38;;;-144.69;50.66
56658;BME280;42530;52.240;19.354;2022-10-31T11:41:40;53138.19;;;-144.69;50.61
56658;BME280;42530;52.240;19.354;2022-10-31T11:47:01;53146.50;;;-144.69;49.86
56658;BME280;42530;52.240;19.354;2022-10-31T11:49:36;53156.91;;;-144.69;50.18
56658;BME280;42530;52.240;19.354;2022-10-31T11:52:06;53190.19;;;-144.69;49.70
56658;BME280;42530;52.240;19.354;2022-10-31T11:55:14;53125.69;;;-144.69;49.51
56658;BME280;42530;52.240;19.354;2022-10-31T11:57:42;53142.34;;;-144.69;49.83
56658;BME280;42530;52.240;19.354;2022-10-31T12:00:22;53169.38;;;-144.69;50.36
56658;BME280;42530;52.240;19.354;2022-10-31T12:02:48;53165.22;;;-144.69;50.97
56658;BME280;42530;52.240;19.354;2022-10-31T12:05:20;53123.63;;;-144.69;50.53
56658;BME280;42530;52.240;19.354;2022-10-31T12:07:48;53146.50;;;-144.69;50.12
56658;BME280;42530;52.240;19.354;2022-10-31T12:10:14;53152.75;;;-144.69;49.79
56658;BME280;42530;52.240;19.354;2022-10-31T12:12:56;53165.22;;;-144.69;49.88
56658;BME280;42530;52.240;19.354;2022-10-31T12:15:47;53163.13;;;-144.69;49.80
56658;BME280;42530;52.240;19.354;2022-10-31T12:18:47;53144.41;;;-144.69;50.53
56658;BME280;42530;52.240;19.354;2022-10-31T12:34:54;53134.00;;;-144.69;50.27
56658;BME280;42530;52.240;19.354;2022-10-31T12:40:42;53165.22;;;-144.69;50.65
56658;BME280;42530;52.240;19.354;2022-10-31T12:45:56;53131.94;;;-144.69;50.63
56658;BME280;42530;52.240;19.354;2022-10-31T12:48:42;53131.94;;;-144.69;50.41
56658;BME280;42530;52.240;19.354;2022-10-31T12:51:40;53167.31;;;-144.69;50.40
56658;BME280;42530;52.240;19.354;2022-10-31T12:59:53;53152.75;;;-144.69;52.07
56658;BME280;42530;52.240;19.354;2022-10-31T13:05:20;53148.56;;;-144.69;52.69
56658;BME280;42530;52.240;19.354;2022-10-31T13:07:54;53142.34;;;-144.69;52.91
56658;BME280;42530;52.240;19.354;2022-10-31T13:10:43;53142.34;;;-144.69;53.19
56658;BME280;42530;52.240;19.354;2022-10-31T13:13:20;53136.09;;;-144.69;52.56
56658;BME280;42530;52.240;19.354;2022-10-31T13:15:50;53156.91;;;-144.69;52.87
56658;BME280;42530;52.240;19.354;2022-10-31T13:18:42;53136.09;;;-144.69;52.70
56658;BME280;42530;52.240;19.354;2022-10-31T13:21:21;53129.84;;;-144.69;52.67
56658;BME280;42530;52.240;19.354;2022-10-31T13:23:50;53161.06;;;-144.69;52.03
56658;BME280;42530;52.240;19.354;2022-10-31T13:31:29;53104.88;;;-144.69;52.50
56658;BME280;42530;52.240;19.354;2022-10-31T13:34:01;53136.09;;;-144.69;51.38
56658;BME280;42530;52.240;19.354;2022-10-31T13:36:37;53136.09;;;-144.69;52.07
56658;BME280;42530;52.240;19.354;2022-10-31T13:44:54;53131.94;;;-144.69;51.53
56658;BME280;42530;52.240;19.354;2022-10-31T13:49:48;53109.06;;;-144.69;52.16
56658;BME280;42530;52.240;19.354;2022-10-31T13:52:24;53165.22;;;-144.69;52.34
56658;BME280;42530;52.240;19.354;2022-10-31T13:54:51;53123.63;;;-144.69;53.47
56658;BME280;42530;52.240;19.354;2022-10-31T13:57:35;53161.06;;;-144.69;53.15
56658;BME280;42530;52.240;19.354;2022-10-31T14:00:24;53144.41;;;-144.69;52.72
56658;BME280;42530;52.240;19.354;2022-10-31T14:02:52;53127.78;;;-144.69;52.83
56658;BME280;42530;52.240;19.354;2022-10-31T14:07:51;53161.06;;;-144.69;52.79
56658;BME280;42530;52.240;19.354;2022-10-31T14:10:34;53169.38;;;-144.69;53.02
56658;BME280;42530;52.240;19.354;2022-10-31T14:13:24;53158.97;;;-144.69;52.96
56658;BME280;42530;52.240;19.354;2022-10-31T14:15:58;53156.91;;;-144.69;52.32
56658;BME280;42530;52.240;19.354;2022-10-31T14:18:31;53194.34;;;-144.69;52.11
56658;BME280;42530;52.240;19.354;2022-10-31T14:20:57;53140.25;;;-144.69;52.04
56658;BME280;42530;52.240;19.354;2022-10-31T14:23:39;53156.91;;;-144.69;52.02
56658;BME280;42530;52.240;19.354;2022-10-31T14:28:47;53127.78;;;-144.69;53.07
56658;BME280;42530;52.240;19.354;2022-10-31T14:31:34;53154.81;;;-144.69;52.29
56658;BME280;42530;52.240;19.354;2022-10-31T14:34:28;53177.72;;;-144.69;51.65
56658;BME280;42530;52.240;19.354;2022-10-31T14:50:51;53136.09;;;-144.69;50.33
56658;BME280;42530;52.240;19.354;2022-10-31T14:53:21;53115.28;;;-144.69;50.56
56658;BME280;42530;52.240;19.354;2022-10-31T14:55:51;53152.75;;;-144.69;50.47